createdAt,value
2018-09-06T00:00:07.613Z,98341.00
2018-09-06T00:02:36.689Z,98343.00
2018-09-06T00:05:06.208Z,98342.00
2018-09-06T00:07:35.290Z,98344.00
2018-09-06T00:10:04.353Z,98347.00
2018-09-06T00:12:33.481Z,98338.00
2018-09-06T00:15:02.585Z,98335.00
2018-09-06T00:17:31.806Z,98331.00
2018-09-06T00:20:01.286Z,98330.00
2018-09-06T00:22:30.458Z,98330.00
2018-09-06T00:24:59.571Z,98336.00
2018-09-06T00:27:28.612Z,98329.00
2018-09-06T00:29:57.731Z,98333.00
2018-09-06T00:32:26.872Z,98324.00
2018-09-06T00:34:55.966Z,98321.00
2018-09-06T00:37:25.082Z,98323.00
2018-09-06T00:39:54.201Z,98318.00
2018-09-06T00:42:23.616Z,98323.00
2018-09-06T00:44:53.034Z,98322.00
2018-09-06T00:47:22.509Z,98315.00
2018-09-06T00:49:51.604Z,98322.00
2018-09-06T00:52:21.548Z,98319.00
2018-09-06T00:54:50.702Z,98316.00
2018-09-06T00:57:19.888Z,98319.00
2018-09-06T00:59:48.990Z,98317.00
2018-09-06T01:02:18.080Z,98320.00
2018-09-06T01:04:47.244Z,98318.00
2018-09-06T01:07:16.372Z,98321.00
2018-09-06T01:09:45.500Z,98319.00
2018-09-06T01:12:15.664Z,98315.00
2018-09-06T01:14:44.920Z,98315.00
2018-09-06T01:17:14.433Z,98315.00
2018-09-06T01:19:43.713Z,98311.00
2018-09-06T01:22:12.837Z,98313.00
2018-09-06T01:24:41.956Z,98310.00
2018-09-06T01:27:11.049Z,98306.00
2018-09-06T01:29:40.305Z,98307.00
2018-09-06T01:32:09.464Z,98307.00
2018-09-06T01:34:38.635Z,98307.00
2018-09-06T01:37:08.352Z,98312.00
2018-09-06T01:39:38.421Z,98305.00
2018-09-06T01:42:08.912Z,98308.00
2018-09-06T01:44:37.998Z,98308.00
2018-09-06T01:47:07.120Z,98311.00
2018-09-06T01:49:36.500Z,98308.00
2018-09-06T01:52:05.620Z,98310.00
2018-09-06T01:54:34.759Z,98307.00
2018-09-06T01:57:03.989Z,98309.00
2018-09-06T01:59:39.492Z,98305.00
2018-09-06T02:02:09.720Z,98305.00
2018-09-06T02:04:38.976Z,98304.00
2018-09-06T02:07:08.336Z,98307.00
2018-09-06T02:09:37.444Z,98304.00
2018-09-06T02:12:06.544Z,98302.00
2018-09-06T02:14:35.704Z,98300.00
2018-09-06T02:17:05.620Z,98304.00
2018-09-06T02:19:34.860Z,98305.00
2018-09-06T02:22:03.912Z,98304.00
2018-09-06T02:24:33.146Z,98300.00
2018-09-06T02:27:02.175Z,98304.00
2018-09-06T02:29:31.300Z,98296.00
2018-09-06T02:32:00.804Z,98299.00
2018-09-06T02:34:29.948Z,98292.00
2018-09-06T02:36:59.020Z,98291.00
2018-09-06T02:39:28.220Z,98287.00
2018-09-06T02:41:57.324Z,98286.00
2018-09-06T02:44:26.502Z,98285.00
2018-09-06T02:46:55.600Z,98286.00
2018-09-06T02:49:30.125Z,98284.00
2018-09-06T02:51:59.191Z,98286.00
2018-09-06T02:54:28.870Z,98281.00
2018-09-06T02:56:58.028Z,98286.00
2018-09-06T02:59:27.195Z,98280.00
2018-09-06T03:01:56.288Z,98283.00
2018-09-06T03:04:25.422Z,98282.00
2018-09-06T03:06:54.460Z,98282.00
2018-09-06T03:09:23.991Z,98284.00
2018-09-06T03:11:57.203Z,98275.00
2018-09-06T03:14:26.347Z,98275.00
2018-09-06T03:16:55.412Z,98272.00
2018-09-06T03:19:24.588Z,98268.00
2018-09-06T03:21:53.655Z,98266.00
2018-09-06T03:24:22.712Z,98265.00
2018-09-06T03:26:51.808Z,98263.00
2018-09-06T03:29:20.978Z,98263.00
2018-09-06T03:31:50.061Z,98262.00
2018-09-06T03:34:19.216Z,98270.00
2018-09-06T03:36:48.284Z,98265.00
2018-09-06T03:39:18.361Z,98259.00
2018-09-06T03:41:47.624Z,98259.00
2018-09-06T03:44:16.743Z,98254.00
2018-09-06T03:46:45.976Z,98253.00
2018-09-06T03:49:15.060Z,98259.00
2018-09-06T03:51:44.190Z,98255.00
2018-09-06T03:54:13.345Z,98256.00
2018-09-06T03:56:42.442Z,98257.00
2018-09-06T03:59:11.852Z,98256.00
2018-09-06T04:01:41.084Z,98256.00
2018-09-06T04:04:10.201Z,98260.00
2018-09-06T04:06:39.252Z,98258.00
2018-09-06T04:09:10.373Z,98259.00
2018-09-06T04:11:39.621Z,98262.00
2018-09-06T04:14:08.738Z,98263.00
2018-09-06T04:16:38.524Z,98264.00
2018-09-06T04:19:08.440Z,98262.00
2018-09-06T04:21:37.640Z,98257.00
2018-09-06T04:24:07.033Z,98263.00
2018-09-06T04:26:36.298Z,98257.00
2018-09-06T04:29:06.517Z,98255.00
2018-09-06T04:31:35.644Z,98253.00
2018-09-06T04:34:04.740Z,98250.00
2018-09-06T04:36:33.812Z,98256.00
2018-09-06T04:39:03.155Z,98256.00
2018-09-06T04:41:33.068Z,98253.00
2018-09-06T04:44:02.228Z,98251.00
2018-09-06T04:46:31.325Z,98252.00
2018-09-06T04:49:00.448Z,98250.00
2018-09-06T04:51:29.530Z,98245.00
2018-09-06T04:53:58.596Z,98248.00
2018-09-06T04:56:27.921Z,98245.00
2018-09-06T04:58:57.152Z,98254.00
2018-09-06T05:01:26.305Z,98250.00
2018-09-06T05:03:55.373Z,98251.00
2018-09-06T05:06:24.629Z,98250.00
2018-09-06T05:08:53.692Z,98251.00
2018-09-06T05:11:23.380Z,98252.00
2018-09-06T05:13:52.471Z,98257.00
2018-09-06T05:16:22.995Z,98255.00
2018-09-06T05:18:52.136Z,98256.00
2018-09-06T05:21:21.316Z,98257.00
2018-09-06T05:23:50.461Z,98249.00
2018-09-06T05:26:19.508Z,98251.00
2018-09-06T05:28:48.917Z,98251.00
2018-09-06T05:31:18.458Z,98252.00
2018-09-06T05:33:47.661Z,98248.00
2018-09-06T05:36:17.566Z,98249.00
2018-09-06T05:38:46.707Z,98251.00
2018-09-06T05:41:15.956Z,98254.00
2018-09-06T05:43:45.264Z,98252.00
2018-09-06T05:46:14.559Z,98259.00
2018-09-06T05:48:43.865Z,98257.00
2018-09-06T05:51:13.218Z,98258.00
2018-09-06T05:53:43.157Z,98260.00
2018-09-06T05:56:13.579Z,98259.00
2018-09-06T05:58:42.804Z,98255.00
2018-09-06T06:01:13.233Z,98252.00
2018-09-06T06:03:42.825Z,98244.00
2018-09-06T06:06:13.017Z,98243.00
2018-09-06T06:08:47.359Z,98244.00
2018-09-06T06:11:17.440Z,98237.00
2018-09-06T06:13:46.573Z,98244.00
2018-09-06T06:16:17.084Z,98241.00
2018-09-06T06:18:46.275Z,98237.00
2018-09-06T12:21:48.189Z,97990.00
2018-09-06T12:24:17.385Z,97988.00
2018-09-06T12:26:46.567Z,97976.00
2018-09-06T12:29:15.712Z,97975.00
2018-09-06T12:31:44.869Z,97974.00
2018-09-06T12:34:14.001Z,97970.00
2018-09-06T12:36:43.345Z,97958.00
2018-09-06T12:39:12.476Z,97975.00
2018-09-06T12:41:41.620Z,97975.00
2018-09-06T12:44:10.771Z,97976.00
2018-09-06T12:46:40.118Z,97976.00
2018-09-06T12:49:09.540Z,97979.00
2018-09-06T12:51:38.957Z,97981.00
2018-09-06T12:54:08.129Z,97981.00
2018-09-06T12:56:37.334Z,97981.00
2018-09-06T12:59:06.524Z,97982.00
2018-09-06T13:01:36.312Z,97994.00
2018-09-06T13:04:05.548Z,98002.00
2018-09-06T13:06:35.418Z,98001.00
2018-09-06T13:09:05.800Z,98013.00
2018-09-06T13:11:35.310Z,98009.00
2018-09-06T13:14:04.975Z,98034.00
2018-09-06T13:16:34.312Z,98038.00
2018-09-06T13:19:03.813Z,98041.00
2018-09-06T13:21:35.164Z,98035.00
2018-09-06T13:24:04.260Z,98035.00
2018-09-06T13:26:34.582Z,98034.00
2018-09-06T13:29:03.829Z,98027.00
2018-09-06T13:31:33.516Z,98017.00
2018-09-06T13:34:02.897Z,98016.00
2018-09-06T13:36:31.988Z,98012.00
2018-09-06T13:39:01.160Z,98012.00
2018-09-06T13:41:31.556Z,98003.00
2018-09-06T13:44:00.749Z,98002.00
2018-09-06T13:46:29.972Z,97998.00
2018-09-06T13:48:59.056Z,98004.00
2018-09-06T13:51:28.165Z,97993.00
2018-09-06T13:53:57.330Z,97988.00
2018-09-06T13:56:27.033Z,97994.00
2018-09-06T13:58:57.272Z,97994.00
2018-09-06T14:01:27.004Z,98003.00
2018-09-06T14:03:56.132Z,98005.00
2018-09-06T14:06:25.427Z,98013.00
2018-09-06T14:08:55.202Z,98020.00
2018-09-06T14:11:24.421Z,98021.00
2018-09-06T14:13:53.479Z,98022.00
2018-09-06T14:16:23.743Z,98020.00
2018-09-06T14:18:52.825Z,98023.00
2018-09-06T14:21:21.916Z,98020.00
2018-09-06T14:23:51.153Z,98023.00
2018-09-06T14:26:20.253Z,98026.00
2018-09-06T14:28:49.645Z,98024.00
2018-09-06T14:31:18.995Z,98024.00
2018-09-06T14:33:48.548Z,98029.00
2018-09-06T14:36:17.844Z,98023.00
2018-09-06T14:38:47.009Z,98024.00
2018-09-06T14:41:16.036Z,98020.00
2018-09-06T14:43:45.120Z,98019.00
2018-09-06T14:46:14.293Z,98018.00
2018-09-06T14:48:43.482Z,98015.00
2018-09-06T14:51:12.897Z,98016.00
2018-09-06T14:53:41.988Z,98005.00
2018-09-06T14:56:12.102Z,98001.00
2018-09-06T14:58:41.172Z,98000.00
2018-09-06T15:01:10.324Z,98001.00
2018-09-06T15:03:39.440Z,98005.00
2018-09-06T15:06:08.570Z,98012.00
2018-09-06T15:08:37.675Z,98009.00
2018-09-06T15:11:07.086Z,98001.00
2018-09-06T15:13:37.262Z,98003.00
2018-09-06T15:16:06.316Z,98001.00
2018-09-06T15:18:35.628Z,97998.00
2018-09-06T15:21:05.352Z,98001.00
2018-09-06T15:23:34.557Z,97998.00
2018-09-06T15:26:03.778Z,98000.00
2018-09-06T15:28:33.003Z,97990.00
2018-09-06T15:31:02.908Z,97991.00
2018-09-06T15:33:32.023Z,97988.00
2018-09-06T15:36:01.163Z,97989.00
2018-09-06T15:38:30.248Z,97987.00
2018-09-06T15:40:59.373Z,97981.00
2018-09-06T15:43:28.434Z,97979.00
2018-09-06T15:45:57.612Z,97978.00
2018-09-06T15:48:26.732Z,97980.00
2018-09-06T15:50:55.809Z,97978.00
2018-09-06T15:53:25.572Z,97985.00
2018-09-06T15:55:54.817Z,97988.00
2018-09-06T15:58:24.053Z,97985.00
2018-09-06T16:00:53.252Z,97980.00
2018-09-06T16:03:22.328Z,97982.00
2018-09-06T16:05:51.488Z,97981.00
2018-09-06T16:08:21.312Z,97987.00
2018-09-06T16:10:50.652Z,98002.00
2018-09-06T16:13:19.808Z,98016.00
2018-09-06T16:15:49.712Z,98017.00
2018-09-06T16:18:18.936Z,98012.00
2018-09-06T16:20:48.864Z,98020.00
2018-09-06T16:23:17.958Z,98017.00
2018-09-06T16:25:47.144Z,98021.00
2018-09-06T16:28:16.244Z,98032.00
2018-09-06T16:30:45.660Z,98035.00
2018-09-06T16:33:15.848Z,98037.00
2018-09-06T16:35:44.972Z,98036.00
2018-09-06T16:38:14.077Z,98045.00
2018-09-06T16:40:43.245Z,98035.00
2018-09-06T16:43:12.340Z,98025.00
2018-09-06T16:45:41.457Z,98023.00
2018-09-06T16:48:10.637Z,98029.00
2018-09-06T16:50:40.668Z,98031.00
2018-09-06T16:53:11.412Z,98044.00
2018-09-06T16:55:40.536Z,98056.00
2018-09-06T16:58:09.656Z,98068.00
2018-09-06T17:00:38.811Z,98068.00
2018-09-06T17:03:07.921Z,98068.00
2018-09-06T17:05:38.941Z,98069.00
2018-09-06T17:08:08.032Z,98077.00
2018-09-06T17:10:37.157Z,98076.00
2018-09-06T17:13:06.420Z,98081.00
2018-09-06T17:15:35.613Z,98092.00
2018-09-06T17:18:04.748Z,98094.00
2018-09-06T17:20:34.025Z,98097.00
2018-09-06T17:23:03.532Z,98107.00
2018-09-06T17:25:32.769Z,98111.00
2018-09-06T17:28:01.888Z,98110.00
2018-09-06T17:30:31.020Z,98112.00
2018-09-06T17:33:00.120Z,98115.00
2018-09-06T17:35:29.280Z,98126.00
2018-09-06T17:37:58.925Z,98135.00
2018-09-06T17:40:36.996Z,98137.00
2018-09-06T17:43:06.124Z,98135.00
2018-09-06T17:45:36.184Z,98135.00
2018-09-06T17:48:05.260Z,98131.00
2018-09-06T17:50:35.037Z,98131.00
2018-09-06T17:53:04.603Z,98134.00
2018-09-06T17:55:33.773Z,98133.00
2018-09-06T17:58:03.124Z,98135.00
2018-09-06T18:00:32.357Z,98138.00
2018-09-06T18:03:01.500Z,98141.00
2018-09-06T18:05:31.146Z,98142.00
2018-09-06T18:08:00.427Z,98150.00
2018-09-06T18:10:29.557Z,98158.00
2018-09-06T18:12:59.320Z,98154.00
2018-09-06T18:15:28.513Z,98149.00
2018-09-06T18:17:57.781Z,98150.00
2018-09-06T18:20:26.891Z,98148.00
2018-09-06T18:22:56.103Z,98152.00
2018-09-06T18:25:25.964Z,98148.00
2018-09-06T18:27:55.052Z,98149.00
2018-09-06T18:30:26.092Z,98150.00
2018-09-06T18:32:55.271Z,98159.00
2018-09-06T18:35:25.522Z,98157.00
2018-09-06T18:37:54.708Z,98158.00
2018-09-06T18:40:23.916Z,98159.00
2018-09-06T18:42:53.025Z,98167.00
2018-09-06T18:45:22.388Z,98172.00
2018-09-06T18:47:52.048Z,98176.00
2018-09-06T18:50:22.497Z,98180.00
2018-09-06T18:52:52.264Z,98176.00
2018-09-06T18:55:21.979Z,98179.00
2018-09-06T18:57:51.188Z,98177.00
2018-09-06T19:00:20.329Z,98183.00
2018-09-06T19:02:49.428Z,98180.00
2018-09-06T19:05:18.545Z,98178.00
2018-09-06T19:07:47.680Z,98181.00
2018-09-06T19:10:16.828Z,98180.00
2018-09-06T19:12:46.034Z,98176.00
2018-09-06T19:15:15.136Z,98176.00
2018-09-06T19:17:44.196Z,98182.00
2018-09-06T19:20:14.045Z,98186.00
2018-09-06T19:22:43.721Z,98190.00
2018-09-06T19:25:12.844Z,98188.00
2018-09-06T19:27:42.013Z,98186.00
2018-09-06T19:30:11.124Z,98180.00
2018-09-06T19:32:41.374Z,98177.00
2018-09-06T19:35:10.537Z,98176.00
2018-09-06T19:37:39.612Z,98183.00
2018-09-06T19:40:10.522Z,98179.00
2018-09-06T19:42:40.393Z,98182.00
2018-09-06T19:45:10.275Z,98175.00
2018-09-06T19:47:40.289Z,98173.00
2018-09-06T19:50:09.600Z,98176.00
2018-09-06T19:52:39.322Z,98174.00
2018-09-06T19:55:09.329Z,98176.00
2018-09-06T19:57:38.525Z,98185.00
2018-09-06T20:00:09.319Z,98187.00
2018-09-06T20:02:38.803Z,98195.00
2018-09-06T20:05:07.972Z,98197.00
2018-09-06T20:07:39.195Z,98191.00
2018-09-06T20:10:09.236Z,98187.00
2018-09-06T20:12:38.384Z,98182.00
2018-09-06T20:15:07.885Z,98186.00
2018-09-06T20:17:36.970Z,98190.00
2018-09-06T20:20:06.838Z,98195.00
2018-09-06T20:22:36.292Z,98197.00
2018-09-06T20:25:05.725Z,98198.00
2018-09-06T20:27:34.890Z,98196.00
2018-09-06T20:30:04.133Z,98200.00
2018-09-06T20:32:34.375Z,98208.00
2018-09-06T20:35:05.491Z,98203.00
2018-09-06T20:37:34.591Z,98213.00
2018-09-06T20:40:04.353Z,98218.00
2018-09-06T20:42:33.428Z,98221.00
2018-09-06T20:45:02.525Z,98224.00
2018-09-06T20:47:31.664Z,98221.00
2018-09-06T20:50:02.031Z,98222.00
2018-09-06T20:52:31.181Z,98219.00
2018-09-06T20:55:02.112Z,98225.00
2018-09-06T20:57:31.312Z,98221.00
2018-09-06T21:00:00.972Z,98224.00
2018-09-06T21:02:39.445Z,98225.00
2018-09-06T21:05:15.569Z,98223.00
2018-09-06T21:07:44.692Z,98224.00
2018-09-06T21:10:14.648Z,98220.00
2018-09-06T21:12:43.768Z,98218.00
2018-09-06T21:15:12.973Z,98222.00
2018-09-06T21:17:42.065Z,98221.00
2018-09-06T21:20:11.237Z,98225.00
2018-09-06T21:22:40.548Z,98223.00
2018-09-06T21:25:09.645Z,98223.00
2018-09-06T21:27:38.773Z,98219.00
2018-09-06T21:30:08.009Z,98225.00
2018-09-06T21:32:37.565Z,98230.00
2018-09-06T21:35:06.694Z,98232.00
2018-09-06T21:37:36.124Z,98232.00
2018-09-06T21:40:05.383Z,98231.00
2018-09-06T21:42:34.564Z,98230.00
2018-09-06T21:45:03.660Z,98236.00
2018-09-06T21:47:32.868Z,98233.00
2018-09-06T21:50:02.056Z,98229.00
2018-09-06T21:52:32.148Z,98231.00
2018-09-06T21:55:01.280Z,98236.00
2018-09-06T21:57:30.456Z,98233.00
2018-09-06T21:59:59.700Z,98227.00
2018-09-06T22:02:34.912Z,98230.00
2018-09-06T22:05:04.179Z,98233.00
2018-09-06T22:07:33.212Z,98231.00
2018-09-06T22:10:02.428Z,98234.00
2018-09-06T22:12:31.672Z,98231.00
2018-09-06T22:15:00.800Z,98230.00
2018-09-06T22:17:29.844Z,98227.00
2018-09-06T22:19:59.039Z,98223.00
2018-09-06T22:22:28.170Z,98223.00
2018-09-06T22:24:58.073Z,98228.00
2018-09-06T22:27:27.577Z,98227.00
2018-09-06T22:29:56.753Z,98221.00
2018-09-06T22:32:25.901Z,98229.00
2018-09-06T22:34:54.992Z,98229.00
2018-09-06T22:37:24.205Z,98229.00
2018-09-06T22:39:53.493Z,98226.00
2018-09-06T22:42:22.549Z,98222.00
2018-09-06T22:44:51.679Z,98223.00
2018-09-06T22:47:21.456Z,98227.00
2018-09-06T22:49:51.096Z,98234.00
2018-09-06T22:52:20.347Z,98241.00
2018-09-06T22:54:49.612Z,98243.00
2018-09-06T22:57:18.696Z,98240.00
2018-09-06T22:59:47.801Z,98247.00
2018-09-06T23:02:17.000Z,98242.00
2018-09-06T23:04:46.136Z,98244.00
2018-09-06T23:07:15.329Z,98244.00
2018-09-06T23:09:44.453Z,98241.00
2018-09-06T23:12:13.580Z,98242.00
2018-09-06T23:14:43.140Z,98239.00
2018-09-06T23:17:12.696Z,98238.00
2018-09-06T23:19:41.893Z,98240.00
2018-09-06T23:22:11.023Z,98237.00
2018-09-06T23:24:40.296Z,98237.00
2018-09-06T23:27:09.445Z,98238.00
2018-09-06T23:29:39.199Z,98239.00
2018-09-06T23:32:08.259Z,98243.00
2018-09-06T23:34:38.085Z,98250.00
2018-09-06T23:37:07.180Z,98242.00
2018-09-06T23:39:37.141Z,98233.00
2018-09-06T23:42:06.212Z,98235.00
2018-09-06T23:44:36.276Z,98232.00
2018-09-06T23:47:05.832Z,98237.00
2018-09-06T23:49:35.012Z,98236.00
2018-09-06T23:52:04.100Z,98238.00
2018-09-06T23:54:33.263Z,98238.00
2018-09-06T23:57:02.692Z,98243.00
2018-09-06T23:59:32.092Z,98245.00
